sensor_id;sensor_type;location;lat;lon;timestamp;pressure;altitude;pressure_sealevel;temperature;humidity
41202;BME280;26936;50.524;8.684;2023-05-07T00:00:12;99377.66;;;14.50;100.00
41202;BME280;26936;50.524;8.684;2023-05-07T00:02:40;99375.03;;;14.47;100.00
41202;BME280;26936;50.524;8.684;2023-05-07T00:05:06;99373.44;;;14.46;100.00
41202;BME280;26936;50.524;8.684;2023-05-07T00:07:31;99374.72;;;14.45;100.00
41202;BME280;26936;50.524;8.684;2023-05-07T00:09:56;99386.53;;;14.43;100.00
41202;BME280;26936;50.524;8.684;2023-05-07T00:12:22;99393.47;;;14.42;100.00
41202;BME280;26936;50.524;8.684;2023-05-07T00:14:47;99382.59;;;14.41;100.00
41202;BME280;26936;50.524;8.684;2023-05-07T00:17:12;99390.63;;;14.42;100.00
41202;BME280;26936;50.524;8.684;2023-05-07T00:19:38;99379.00;;;14.40;100.00
41202;BME280;26936;50.524;8.684;2023-05-07T00:22:03;99389.53;;;14.40;100.00
41202;BME280;26936;50.524;8.684;2023-05-07T00:24:28;99384.66;;;14.40;100.00
41202;BME280;26936;50.524;8.684;2023-05-07T00:26:53;99384.22;;;14.33;100.00
41202;BME280;26936;50.524;8.684;2023-05-07T00:29:19;99382.47;;;14.35;100.00
41202;BME280;26936;50.524;8.684;2023-05-07T00:31:45;99379.34;;;14.33;100.00
41202;BME280;26936;50.524;8.684;2023-05-07T00:34:10;99376.03;;;14.35;100.00
41202;BME280;26936;50.524;8.684;2023-05-07T00:36:35;99383.25;;;14.36;100.00
41202;BME280;26936;50.524;8.684;2023-05-07T00:39:01;99375.84;;;14.38;100.00
41202;BME280;26936;50.524;8.684;2023-05-07T00:41:28;99373.66;;;14.33;100.00
41202;BME280;26936;50.524;8.684;2023-05-07T00:43:54;99371.31;;;14.32;100.00
41202;BME280;26936;50.524;8.684;2023-05-07T00:46:20;99372.88;;;14.33;100.00
41202;BME280;26936;50.524;8.684;2023-05-07T00:48:46;99374.31;;;14.28;100.00
41202;BME280;26936;50.524;8.684;2023-05-07T00:51:12;99370.69;;;14.28;100.00
41202;BME280;26936;50.524;8.684;2023-05-07T00:53:38;99377.16;;;14.28;100.00
41202;BME280;26936;50.524;8.684;2023-05-07T00:56:04;99373.25;;;14.26;100.00
41202;BME280;26936;50.524;8.684;2023-05-07T00:58:31;99371.19;;;14.26;100.00
41202;BME280;26936;50.524;8.684;2023-05-07T01:00:57;99368.00;;;14.24;100.00
41202;BME280;26936;50.524;8.684;2023-05-07T01:03:23;99370.53;;;14.22;100.00
41202;BME280;26936;50.524;8.684;2023-05-07T01:05:49;99359.22;;;14.22;100.00
41202;BME280;26936;50.524;8.684;2023-05-07T01:08:16;99364.56;;;14.20;100.00
41202;BME280;26936;50.524;8.684;2023-05-07T01:10:42;99364.56;;;14.20;100.00
41202;BME280;26936;50.524;8.684;2023-05-07T01:13:09;99369.44;;;14.20;100.00
41202;BME280;26936;50.524;8.684;2023-05-07T01:15:35;99368.19;;;14.21;100.00
41202;BME280;26936;50.524;8.684;2023-05-07T01:18:01;99369.75;;;14.22;100.00
41202;BME280;26936;50.524;8.684;2023-05-07T01:20:27;99370.06;;;14.24;100.00
41202;BME280;26936;50.524;8.684;2023-05-07T01:22:53;99373.66;;;14.24;100.00
41202;BME280;26936;50.524;8.684;2023-05-07T01:25:19;99370.06;;;14.24;100.00
41202;BME280;26936;50.524;8.684;2023-05-07T01:27:45;99372.44;;;14.25;100.00
41202;BME280;26936;50.524;8.684;2023-05-07T01:30:11;99366.78;;;14.25;100.00
41202;BME280;26936;50.524;8.684;2023-05-07T01:32:52;99368.81;;;14.25;100.00
41202;BME280;26936;50.524;8.684;2023-05-07T01:35:20;99365.16;;;14.24;100.00
41202;BME280;26936;50.524;8.684;2023-05-07T01:37:47;99365.03;;;14.28;100.00
41202;BME280;26936;50.524;8.684;2023-05-07T01:40:13;99369.63;;;14.25;100.00
41202;BME280;26936;50.524;8.684;2023-05-07T01:42:39;99370.41;;;14.26;100.00
41202;BME280;26936;50.524;8.684;2023-05-07T01:45:06;99369.94;;;14.27;100.00
41202;BME280;26936;50.524;8.684;2023-05-07T01:47:32;99365.50;;;14.26;100.00
41202;BME280;26936;50.524;8.684;2023-05-07T01:49:57;99364.75;;;14.26;100.00
41202;BME280;26936;50.524;8.684;2023-05-07T01:52:24;99362.69;;;14.26;100.00
41202;BME280;26936;50.524;8.684;2023-05-07T01:54:51;99360.31;;;14.25;100.00
41202;BME280;26936;50.524;8.684;2023-05-07T01:57:16;99356.38;;;14.22;100.00
41202;BME280;26936;50.524;8.684;2023-05-07T01:59:41;99354.03;;;14.21;100.00
41202;BME280;26936;50.524;8.684;2023-05-07T02:02:07;99350.88;;;14.19;100.00
41202;BME280;26936;50.524;8.684;2023-05-07T02:04:32;99351.69;;;14.19;100.00
41202;BME280;26936;50.524;8.684;2023-05-07T02:06:57;99347.56;;;14.20;100.00
41202;BME280;26936;50.524;8.684;2023-05-07T02:09:22;99352.44;;;14.20;100.00
41202;BME280;26936;50.524;8.684;2023-05-07T02:11:48;99356.25;;;14.17;100.00
41202;BME280;26936;50.524;8.684;2023-05-07T02:14:14;99359.38;;;14.19;100.00
41202;BME280;26936;50.524;8.684;2023-05-07T02:16:39;99365.03;;;14.19;100.00
41202;BME280;26936;50.524;8.684;2023-05-07T02:19:04;99359.38;;;14.19;100.00
41202;BME280;26936;50.524;8.684;2023-05-07T02:21:30;99368.97;;;14.21;100.00
41202;BME280;26936;50.524;8.684;2023-05-07T02:23:55;99375.09;;;14.20;100.00
41202;BME280;26936;50.524;8.684;2023-05-07T02:26:20;99361.00;;;14.11;100.00
41202;BME280;26936;50.524;8.684;2023-05-07T02:28:46;99371.34;;;14.14;100.00
41202;BME280;26936;50.524;8.684;2023-05-07T02:31:12;99372.16;;;14.14;100.00
41202;BME280;26936;50.524;8.684;2023-05-07T02:33:37;99379.06;;;14.13;100.00
41202;BME280;26936;50.524;8.684;2023-05-07T02:36:07;99374.66;;;14.12;100.00
41202;BME280;26936;50.524;8.684;2023-05-07T02:38:33;99378.28;;;14.13;100.00
41202;BME280;26936;50.524;8.684;2023-05-07T02:40:59;99378.56;;;14.15;100.00
41202;BME280;26936;50.524;8.684;2023-05-07T02:43:24;99379.06;;;14.13;100.00
41202;BME280;26936;50.524;8.684;2023-05-07T02:46:02;99384.72;;;14.13;100.00
41202;BME280;26936;50.524;8.684;2023-05-07T02:48:27;99384.06;;;14.18;100.00
41202;BME280;26936;50.524;8.684;2023-05-07T02:50:53;99377.63;;;14.18;100.00
41202;BME280;26936;50.524;8.684;2023-05-07T02:53:18;99373.84;;;14.21;100.00
41202;BME280;26936;50.524;8.684;2023-05-07T02:55:43;99372.09;;;14.23;100.00
41202;BME280;26936;50.524;8.684;2023-05-07T02:58:09;99377.16;;;14.19;100.00
41202;BME280;26936;50.524;8.684;2023-05-07T03:00:34;99370.53;;;14.22;100.00
41202;BME280;26936;50.524;8.684;2023-05-07T03:02:59;99370.53;;;14.22;100.00
41202;BME280;26936;50.524;8.684;2023-05-07T03:05:25;99373.84;;;14.21;100.00
41202;BME280;26936;50.524;8.684;2023-05-07T03:07:50;99370.72;;;14.19;100.00
41202;BME280;26936;50.524;8.684;2023-05-07T03:10:15;99370.09;;;14.15;100.00
41202;BME280;26936;50.524;8.684;2023-05-07T03:12:41;99369.47;;;14.11;100.00
41202;BME280;26936;50.524;8.684;2023-05-07T03:15:06;99374.53;;;14.07;100.00
41202;BME280;26936;50.524;8.684;2023-05-07T03:17:32;99371.56;;;14.01;100.00
41202;BME280;26936;50.524;8.684;2023-05-07T03:19:57;99368.25;;;14.03;100.00
41202;BME280;26936;50.524;8.684;2023-05-07T03:22:22;99367.78;;;14.04;100.00
41202;BME280;26936;50.524;8.684;2023-05-07T03:24:48;99364.16;;;14.04;100.00
41202;BME280;26936;50.524;8.684;2023-05-07T03:27:13;99364.16;;;14.04;100.00
41202;BME280;26936;50.524;8.684;2023-05-07T03:29:38;99360.25;;;14.01;100.00
41202;BME280;26936;50.524;8.684;2023-05-07T03:32:04;99356.28;;;13.99;100.00
41202;BME280;26936;50.524;8.684;2023-05-07T03:34:29;99359.28;;;13.95;100.00
41202;BME280;26936;50.524;8.684;2023-05-07T03:36:54;99356.47;;;13.95;100.00
41202;BME280;26936;50.524;8.684;2023-05-07T03:39:20;99361.16;;;13.98;100.00
41202;BME280;26936;50.524;8.684;2023-05-07T03:41:46;99362.44;;;13.97;100.00
41202;BME280;26936;50.524;8.684;2023-05-07T03:44:11;99373.28;;;13.99;100.00
41202;BME280;26936;50.524;8.684;2023-05-07T03:46:36;99369.50;;;14.02;100.00
41202;BME280;26936;50.524;8.684;2023-05-07T03:49:01;99365.41;;;14.03;100.00
41202;BME280;26936;50.524;8.684;2023-05-07T03:51:27;99365.91;;;14.01;100.00
41202;BME280;26936;50.524;8.684;2023-05-07T03:53:52;99360.41;;;13.98;100.00
41202;BME280;26936;50.524;8.684;2023-05-07T03:56:18;99360.25;;;13.92;100.00
41202;BME280;26936;50.524;8.684;2023-05-07T03:58:44;99363.88;;;13.84;100.00
41202;BME280;26936;50.524;8.684;2023-05-07T04:01:09;99367.81;;;13.77;100.00
41202;BME280;26936;50.524;8.684;2023-05-07T04:03:35;99376.78;;;13.76;100.00
41202;BME280;26936;50.524;8.684;2023-05-07T04:06:00;99372.25;;;13.78;100.00
41202;BME280;26936;50.524;8.684;2023-05-07T04:08:25;99374.13;;;13.81;100.00
41202;BME280;26936;50.524;8.684;2023-05-07T04:10:57;99377.91;;;13.78;100.00
41202;BME280;26936;50.524;8.684;2023-05-07T04:13:23;99369.25;;;13.73;100.00
41202;BME280;26936;50.524;8.684;2023-05-07T04:15:48;99375.91;;;13.60;100.00
41202;BME280;26936;50.524;8.684;2023-05-07T04:18:14;99369.44;;;13.60;100.00
41202;BME280;26936;50.524;8.684;2023-05-07T04:20:39;99373.69;;;13.55;100.00
41202;BME280;26936;50.524;8.684;2023-05-07T04:23:05;99374.34;;;13.50;100.00
41202;BME280;26936;50.524;8.684;2023-05-07T04:25:30;99371.66;;;13.47;100.00
41202;BME280;26936;50.524;8.684;2023-05-07T04:27:55;99372.13;;;13.45;100.00
41202;BME280;26936;50.524;8.684;2023-05-07T04:30:21;99368.34;;;13.39;100.00
41202;BME280;26936;50.524;8.684;2023-05-07T04:32:46;99369.13;;;13.40;100.00
41202;BME280;26936;50.524;8.684;2023-05-07T04:35:13;99366.94;;;13.35;100.00
41202;BME280;26936;50.524;8.684;2023-05-07T04:37:38;99376.84;;;13.39;100.00
41202;BME280;26936;50.524;8.684;2023-05-07T04:40:04;99382.34;;;13.34;100.00
41202;BME280;26936;50.524;8.684;2023-05-07T04:42:29;99378.56;;;13.37;100.00
41202;BME280;26936;50.524;8.684;2023-05-07T04:44:55;99379.22;;;13.41;100.00
41202;BME280;26936;50.524;8.684;2023-05-07T04:47:20;99380.16;;;13.47;100.00
41202;BME280;26936;50.524;8.684;2023-05-07T04:49:46;99388.00;;;13.52;100.00
41202;BME280;26936;50.524;8.684;2023-05-07T04:52:11;99387.06;;;13.55;100.00
41202;BME280;26936;50.524;8.684;2023-05-07T04:54:37;99391.44;;;13.56;100.00
41202;BME280;26936;50.524;8.684;2023-05-07T04:57:03;99399.31;;;13.61;100.00
41202;BME280;26936;50.524;8.684;2023-05-07T04:59:29;99401.97;;;13.64;100.00
41202;BME280;26936;50.524;8.684;2023-05-07T05:01:55;99413.94;;;13.69;100.00
41202;BME280;26936;50.524;8.684;2023-05-07T05:04:20;99410.16;;;13.72;100.00
41202;BME280;26936;50.524;8.684;2023-05-07T05:06:45;99408.09;;;13.72;100.00
41202;BME280;26936;50.524;8.684;2023-05-07T05:09:11;99415.66;;;13.75;100.00
41202;BME280;26936;50.524;8.684;2023-05-07T05:11:36;99413.91;;;13.78;100.00
41202;BME280;26936;50.524;8.684;2023-05-07T05:14:01;99419.09;;;13.79;100.00
41202;BME280;26936;50.524;8.684;2023-05-07T05:16:27;99417.66;;;13.84;100.00
41202;BME280;26936;50.524;8.684;2023-05-07T05:18:52;99415.94;;;13.86;100.00
41202;BME280;26936;50.524;8.684;2023-05-07T05:21:19;99415.63;;;13.93;100.00
41202;BME280;26936;50.524;8.684;2023-05-07T05:23:45;99421.91;;;13.97;100.00
41202;BME280;26936;50.524;8.684;2023-05-07T05:26:10;99426.59;;;14.00;100.00
41202;BME280;26936;50.524;8.684;2023-05-07T05:28:36;99435.59;;;13.90;100.00
41202;BME280;26936;50.524;8.684;2023-05-07T05:31:01;99431.19;;;13.89;100.00
41202;BME280;26936;50.524;8.684;2023-05-07T05:33:27;99436.38;;;13.90;100.00
41202;BME280;26936;50.524;8.684;2023-05-07T05:35:53;99435.25;;;13.97;100.00
41202;BME280;26936;50.524;8.684;2023-05-07T05:38:19;99436.84;;;13.98;100.00
41202;BME280;26936;50.524;8.684;2023-05-07T05:40:46;99440.44;;;13.98;100.00
41202;BME280;26936;50.524;8.684;2023-05-07T05:43:11;99433.66;;;14.05;100.00
41202;BME280;26936;50.524;8.684;2023-05-07T05:45:36;99437.94;;;14.09;100.00
41202;BME280;26936;50.524;8.684;2023-05-07T05:48:01;99436.81;;;14.16;100.00
41202;BME280;26936;50.524;8.684;2023-05-07T05:50:27;99438.06;;;14.24;100.00
41202;BME280;26936;50.524;8.684;2023-05-07T05:52:52;99439.63;;;14.25;100.00
41202;BME280;26936;50.524;8.684;2023-05-07T05:55:17;99439.63;;;14.34;100.00
41202;BME280;26936;50.524;8.684;2023-05-07T05:57:42;99438.19;;;14.38;100.00
41202;BME280;26936;50.524;8.684;2023-05-07T06:00:09;99437.88;;;14.45;100.00
41202;BME280;26936;50.524;8.684;2023-05-07T06:02:34;99437.97;;;14.51;100.00
41202;BME280;26936;50.524;8.684;2023-05-07T06:04:59;99429.13;;;14.58;100.00
41202;BME280;26936;50.524;8.684;2023-05-07T06:07:25;99425.50;;;14.66;100.00
41202;BME280;26936;50.524;8.684;2023-05-07T06:09:50;99446.25;;;14.72;100.00
41202;BME280;26936;50.524;8.684;2023-05-07T06:12:15;99438.00;;;14.83;100.00
41202;BME280;26936;50.524;8.684;2023-05-07T06:14:43;99435.22;;;14.98;100.00
41202;BME280;26936;50.524;8.684;2023-05-07T06:17:08;99435.94;;;15.08;100.00
41202;BME280;26936;50.524;8.684;2023-05-07T06:19:33;99438.63;;;15.11;100.00
41202;BME280;26936;50.524;8.684;2023-05-07T06:21:59;99448.16;;;15.23;100.00
41202;BME280;26936;50.524;8.684;2023-05-07T06:24:26;99452.59;;;15.47;100.00
41202;BME280;26936;50.524;8.684;2023-05-07T06:26:51;99461.13;;;15.85;100.00
41202;BME280;26936;50.524;8.684;2023-05-07T06:29:16;99456.63;;;15.93;100.00
41202;BME280;26936;50.524;8.684;2023-05-07T06:31:42;99458.78;;;15.98;100.00
41202;BME280;26936;50.524;8.684;2023-05-07T06:34:07;99453.50;;;16.06;100.00
41202;BME280;26936;50.524;8.684;2023-05-07T06:36:32;99461.22;;;16.05;100.00
41202;BME280;26936;50.524;8.684;2023-05-07T06:38:58;99464.78;;;16.15;100.00
41202;BME280;26936;50.524;8.684;2023-05-07T06:41:23;99465.66;;;16.06;100.00
41202;BME280;26936;50.524;8.684;2023-05-07T06:43:48;99457.69;;;15.96;100.00
41202;BME280;26936;50.524;8.684;2023-05-07T06:46:14;99467.78;;;15.97;100.00
41202;BME280;26936;50.524;8.684;2023-05-07T06:48:40;99454.97;;;16.01;100.00
41202;BME280;26936;50.524;8.684;2023-05-07T06:51:05;99465.34;;;16.04;100.00
41202;BME280;26936;50.524;8.684;2023-05-07T06:53:30;99467.41;;;16.04;100.00
41202;BME280;26936;50.524;8.684;2023-05-07T06:55:56;99462.38;;;15.84;100.00
41202;BME280;26936;50.524;8.684;2023-05-07T06:58:22;99465.31;;;15.90;100.00
41202;BME280;26936;50.524;8.684;2023-05-07T07:00:47;99463.97;;;16.00;100.00
41202;BME280;26936;50.524;8.684;2023-05-07T07:03:12;99474.19;;;16.36;100.00
41202;BME280;26936;50.524;8.684;2023-05-07T07:05:38;99481.06;;;16.58;100.00
41202;BME280;26936;50.524;8.684;2023-05-07T07:08:03;99474.84;;;16.89;100.00
41202;BME280;26936;50.524;8.684;2023-05-07T07:10:28;99467.50;;;17.17;100.00
41202;BME280;26936;50.524;8.684;2023-05-07T07:12:54;99467.72;;;17.48;99.44
41202;BME280;26936;50.524;8.684;2023-05-07T07:15:20;99471.31;;;17.69;95.23
41202;BME280;26936;50.524;8.684;2023-05-07T07:17:50;99480.09;;;17.85;95.94
41202;BME280;26936;50.524;8.684;2023-05-07T07:20:15;99476.31;;;17.74;95.97
41202;BME280;26936;50.524;8.684;2023-05-07T07:22:41;99477.81;;;17.89;96.84
41202;BME280;26936;50.524;8.684;2023-05-07T07:25:06;99476.19;;;17.83;93.98
41202;BME280;26936;50.524;8.684;2023-05-07T07:27:32;99483.72;;;17.86;93.77
41202;BME280;26936;50.524;8.684;2023-05-07T07:29:57;99477.03;;;17.89;94.35
41202;BME280;26936;50.524;8.684;2023-05-07T07:32:22;99481.13;;;18.08;93.34
41202;BME280;26936;50.524;8.684;2023-05-07T07:34:48;99480.25;;;18.22;92.71
41202;BME280;26936;50.524;8.684;2023-05-07T07:37:13;99483.78;;;18.37;91.69
41202;BME280;26936;50.524;8.684;2023-05-07T07:39:38;99475.97;;;18.37;91.87
41202;BME280;26936;50.524;8.684;2023-05-07T07:42:03;99482.06;;;18.45;90.07
41202;BME280;26936;50.524;8.684;2023-05-07T07:44:29;99469.94;;;18.50;89.80
41202;BME280;26936;50.524;8.684;2023-05-07T07:46:54;99472.44;;;18.73;89.62
41202;BME280;26936;50.524;8.684;2023-05-07T07:49:19;99473.50;;;19.07;88.44
41202;BME280;26936;50.524;8.684;2023-05-07T07:51:45;99474.88;;;19.23;86.11
41202;BME280;26936;50.524;8.684;2023-05-07T07:54:10;99479.69;;;19.06;86.00
41202;BME280;26936;50.524;8.684;2023-05-07T07:56:35;99477.19;;;19.19;85.01
41202;BME280;26936;50.524;8.684;2023-05-07T07:59:01;99485.59;;;18.97;85.94
41202;BME280;26936;50.524;8.684;2023-05-07T08:01:27;99479.75;;;19.11;86.71
41202;BME280;26936;50.524;8.684;2023-05-07T08:03:53;99486.41;;;18.97;84.49
41202;BME280;26936;50.524;8.684;2023-05-07T08:06:18;99482.75;;;18.97;86.01
41202;BME280;26936;50.524;8.684;2023-05-07T08:08:43;99485.03;;;18.92;85.72
41202;BME280;26936;50.524;8.684;2023-05-07T08:11:09;99481.16;;;18.90;86.03
41202;BME280;26936;50.524;8.684;2023-05-07T08:13:36;99478.34;;;18.64;85.05
41202;BME280;26936;50.524;8.684;2023-05-07T08:16:01;99478.00;;;18.88;85.48
41202;BME280;26936;50.524;8.684;2023-05-07T08:18:27;99469.28;;;19.03;85.31
41202;BME280;26936;50.524;8.684;2023-05-07T08:20:54;99471.78;;;19.26;84.88
41202;BME280;26936;50.524;8.684;2023-05-07T08:23:19;99467.06;;;19.54;84.04
41202;BME280;26936;50.524;8.684;2023-05-07T08:25:45;99473.38;;;19.75;80.76
41202;BME280;26936;50.524;8.684;2023-05-07T08:28:10;99474.00;;;20.06;79.77
41202;BME280;26936;50.524;8.684;2023-05-07T08:30:35;99460.31;;;20.33;77.54
41202;BME280;26936;50.524;8.684;2023-05-07T08:33:01;99468.59;;;20.25;77.17
41202;BME280;26936;50.524;8.684;2023-05-07T08:35:26;99462.66;;;20.40;75.49
41202;BME280;26936;50.524;8.684;2023-05-07T08:37:53;99470.94;;;20.27;76.62
41202;BME280;26936;50.524;8.684;2023-05-07T08:40:18;99480.28;;;20.21;77.26
41202;BME280;26936;50.524;8.684;2023-05-07T08:42:44;99477.38;;;20.05;77.27
41202;BME280;26936;50.524;8.684;2023-05-07T08:45:10;99475.34;;;20.16;75.86
41202;BME280;26936;50.524;8.684;2023-05-07T08:47:42;99480.13;;;19.77;75.27
41202;BME280;26936;50.524;8.684;2023-05-07T08:50:10;99473.94;;;19.90;75.84
41202;BME280;26936;50.524;8.684;2023-05-07T08:52:36;99476.09;;;20.11;76.32
41202;BME280;26936;50.524;8.684;2023-05-07T08:55:02;99472.41;;;19.94;78.85
41202;BME280;26936;50.524;8.684;2023-05-07T08:57:28;99477.72;;;20.18;77.13
41202;BME280;26936;50.524;8.684;2023-05-07T08:59:53;99472.22;;;20.20;77.45
41202;BME280;26936;50.524;8.684;2023-05-07T09:02:18;99479.81;;;20.40;76.64
41202;BME280;26936;50.524;8.684;2023-05-07T09:04:43;99468.09;;;20.27;74.61
41202;BME280;26936;50.524;8.684;2023-05-07T09:07:09;99473.28;;;20.23;76.25
41202;BME280;26936;50.524;8.684;2023-05-07T09:09:35;99471.78;;;20.60;74.71
41202;BME280;26936;50.524;8.684;2023-05-07T09:12:00;99472.03;;;20.46;73.86
41202;BME280;26936;50.524;8.684;2023-05-07T09:14:27;99477.97;;;20.26;74.73
41202;BME280;26936;50.524;8.684;2023-05-07T09:16:53;99480.50;;;20.12;74.89
41202;BME280;26936;50.524;8.684;2023-05-07T09:19:23;99474.38;;;20.47;73.90
41202;BME280;26936;50.524;8.684;2023-05-07T09:21:48;99479.31;;;20.47;73.24
41202;BME280;26936;50.524;8.684;2023-05-07T09:24:15;99488.66;;;20.42;74.66
41202;BME280;26936;50.524;8.684;2023-05-07T09:26:41;99492.06;;;20.57;73.54
41202;BME280;26936;50.524;8.684;2023-05-07T09:29:07;99484.81;;;21.00;72.79
41202;BME280;26936;50.524;8.684;2023-05-07T09:31:38;99488.66;;;21.41;69.86
41202;BME280;26936;50.524;8.684;2023-05-07T09:34:04;99487.88;;;21.40;69.27
41202;BME280;26936;50.524;8.684;2023-05-07T09:36:31;99480.75;;;21.64;69.21
41202;BME280;26936;50.524;8.684;2023-05-07T09:38:59;99489.81;;;22.41;66.18
41202;BME280;26936;50.524;8.684;2023-05-07T09:41:24;99476.81;;;23.05;63.62
41202;BME280;26936;50.524;8.684;2023-05-07T09:43:53;99479.59;;;23.64;62.99
41202;BME280;26936;50.524;8.684;2023-05-07T09:46:20;99476.03;;;24.01;60.66
41202;BME280;26936;50.524;8.684;2023-05-07T09:48:52;99472.72;;;24.16;60.04
41202;BME280;26936;50.524;8.684;2023-05-07T09:51:30;99471.38;;;23.98;58.71
41202;BME280;26936;50.524;8.684;2023-05-07T09:53:58;99471.19;;;24.65;57.11
41202;BME280;26936;50.524;8.684;2023-05-07T09:56:29;99454.53;;;23.83;56.71
41202;BME280;26936;50.524;8.684;2023-05-07T09:58:56;99462.97;;;24.00;56.97
41202;BME280;26936;50.524;8.684;2023-05-07T10:01:23;99463.91;;;24.27;57.53
41202;BME280;26936;50.524;8.684;2023-05-07T10:03:51;99473.22;;;24.33;56.11
41202;BME280;26936;50.524;8.684;2023-05-07T10:06:17;99454.22;;;24.80;56.93
41202;BME280;26936;50.524;8.684;2023-05-07T10:08:43;99458.28;;;25.16;54.67
41202;BME280;26936;50.524;8.684;2023-05-07T10:11:09;99455.91;;;25.72;53.15
41202;BME280;26936;50.524;8.684;2023-05-07T10:13:35;99459.00;;;24.40;54.53
41202;BME280;26936;50.524;8.684;2023-05-07T10:16:05;99462.03;;;24.48;55.01
41202;BME280;26936;50.524;8.684;2023-05-07T10:18:31;99459.19;;;24.61;53.97
41202;BME280;26936;50.524;8.684;2023-05-07T10:21:18;99467.66;;;24.90;54.70
41202;BME280;26936;50.524;8.684;2023-05-07T10:23:45;99469.09;;;24.97;53.58
41202;BME280;26936;50.524;8.684;2023-05-07T10:26:14;99467.22;;;24.49;53.52
41202;BME280;26936;50.524;8.684;2023-05-07T10:28:42;99467.53;;;24.46;55.31
41202;BME280;26936;50.524;8.684;2023-05-07T10:33:45;99458.69;;;24.94;54.94
41202;BME280;26936;50.524;8.684;2023-05-07T10:36:12;99467.25;;;24.99;54.21
41202;BME280;26936;50.524;8.684;2023-05-07T10:38:37;99466.69;;;24.69;54.83
41202;BME280;26936;50.524;8.684;2023-05-07T10:41:04;99464.72;;;24.59;54.90
41202;BME280;26936;50.524;8.684;2023-05-07T10:43:40;99475.78;;;25.05;53.01
41202;BME280;26936;50.524;8.684;2023-05-07T10:51:25;99466.78;;;24.95;52.82
41202;BME280;26936;50.524;8.684;2023-05-07T10:56:34;99463.59;;;24.30;56.84
41202;BME280;26936;50.524;8.684;2023-05-07T11:01:55;99464.66;;;23.18;57.19
41202;BME280;26936;50.524;8.684;2023-05-07T11:04:22;99458.53;;;23.56;58.23
41202;BME280;26936;50.524;8.684;2023-05-07T11:15:14;99451.78;;;23.00;58.45
41202;BME280;26936;50.524;8.684;2023-05-07T11:17:54;99446.84;;;23.25;59.19
41202;BME280;26936;50.524;8.684;2023-05-07T11:20:20;99435.09;;;23.23;60.47
41202;BME280;26936;50.524;8.684;2023-05-07T11:22:47;99444.06;;;23.14;60.54
41202;BME280;26936;50.524;8.684;2023-05-07T11:25:17;99444.06;;;23.14;59.35
41202;BME280;26936;50.524;8.684;2023-05-07T11:27:46;99440.97;;;23.12;61.13
41202;BME280;26936;50.524;8.684;2023-05-07T11:30:21;99439.22;;;23.75;61.43
41202;BME280;26936;50.524;8.684;2023-05-07T11:32:47;99442.66;;;23.92;57.93
41202;BME280;26936;50.524;8.684;2023-05-07T11:35:14;99446.09;;;24.28;58.63
41202;BME280;26936;50.524;8.684;2023-05-07T11:37:40;99435.16;;;24.08;56.88
41202;BME280;26936;50.524;8.684;2023-05-07T11:40:07;99433.28;;;23.49;59.44
41202;BME280;26936;50.524;8.684;2023-05-07T11:42:38;99441.22;;;23.80;57.56
41202;BME280;26936;50.524;8.684;2023-05-07T11:45:04;99431.59;;;23.78;59.59
41202;BME280;26936;50.524;8.684;2023-05-07T11:47:31;99428.75;;;23.96;59.24
41202;BME280;26936;50.524;8.684;2023-05-07T11:49:57;99428.69;;;24.02;58.13
41202;BME280;26936;50.524;8.684;2023-05-07T11:52:26;99447.00;;;23.38;58.49
41202;BME280;26936;50.524;8.684;2023-05-07T11:54:54;99440.06;;;23.70;59.35
41202;BME280;26936;50.524;8.684;2023-05-07T11:57:23;99434.97;;;23.58;60.10
41202;BME280;26936;50.524;8.684;2023-05-07T11:59:59;99432.19;;;23.52;57.43
41202;BME280;26936;50.524;8.684;2023-05-07T12:02:27;99423.38;;;23.69;57.59
41202;BME280;26936;50.524;8.684;2023-05-07T12:04:53;99424.03;;;23.56;60.05
41202;BME280;26936;50.524;8.684;2023-05-07T12:07:19;99421.22;;;23.51;60.81
41202;BME280;26936;50.524;8.684;2023-05-07T12:09:45;99421.53;;;23.23;59.89
41202;BME280;26936;50.524;8.684;2023-05-07T12:12:11;99420.63;;;23.34;59.98
41202;BME280;26936;50.524;8.684;2023-05-07T12:14:42;99414.03;;;23.39;62.48
41202;BME280;26936;50.524;8.684;2023-05-07T12:17:09;99420.44;;;23.50;59.81
41202;BME280;26936;50.524;8.684;2023-05-07T12:19:35;99423.38;;;23.45;60.17
41202;BME280;26936;50.524;8.684;2023-05-07T12:22:03;99416.91;;;23.39;60.63
41202;BME280;26936;50.524;8.684;2023-05-07T12:24:28;99415.88;;;23.79;61.04
41202;BME280;26936;50.524;8.684;2023-05-07T12:26:53;99415.81;;;23.84;60.53
41202;BME280;26936;50.524;8.684;2023-05-07T12:29:22;99421.25;;;23.69;60.22
41202;BME280;26936;50.524;8.684;2023-05-07T12:31:50;99418.66;;;23.23;61.34
41202;BME280;26936;50.524;8.684;2023-05-07T12:34:15;99420.38;;;23.32;61.40
41202;BME280;26936;50.524;8.684;2023-05-07T12:36:41;99414.91;;;23.04;59.14
41202;BME280;26936;50.524;8.684;2023-05-07T12:39:07;99416.63;;;23.42;61.96
41202;BME280;26936;50.524;8.684;2023-05-07T12:41:54;99412.69;;;23.16;60.73
41202;BME280;26936;50.524;8.684;2023-05-07T12:44:23;99407.50;;;23.38;62.33
41202;BME280;26936;50.524;8.684;2023-05-07T12:46:49;99408.41;;;23.52;59.85
41202;BME280;26936;50.524;8.684;2023-05-07T12:49:14;99404.44;;;23.55;59.54
41202;BME280;26936;50.524;8.684;2023-05-07T12:51:40;99402.06;;;23.59;59.02
41202;BME280;26936;50.524;8.684;2023-05-07T12:54:05;99393.88;;;23.44;59.21
41202;BME280;26936;50.524;8.684;2023-05-07T12:56:31;99394.91;;;23.17;59.95
41202;BME280;26936;50.524;8.684;2023-05-07T12:58:59;99393.53;;;23.24;60.93
41202;BME280;26936;50.524;8.684;2023-05-07T13:01:29;99399.44;;;23.37;61.46
41202;BME280;26936;50.524;8.684;2023-05-07T13:03:54;99395.38;;;23.27;61.66
41202;BME280;26936;50.524;8.684;2023-05-07T13:06:20;99392.06;;;22.93;60.26
41202;BME280;26936;50.524;8.684;2023-05-07T13:08:45;99397.13;;;23.06;61.17
41202;BME280;26936;50.524;8.684;2023-05-07T13:11:11;99393.16;;;22.84;61.04